Time;durP1;ratioP1;P1;durP2;ratioP2;P2;SDS_P1;SDS_P2;PMS_P1;PMS_P2;Temp;Humidity;BMP_temperature;BMP_pressure;BME280_temperature;BME280_humidity;BME280_pressure;Samples;Min_cycle;Max_cycle;Signal;HPM_P1;HPM_P2
2023/04/12 00:02:27;;;;;;;7.73;3.10;;;;;;;2.52;100.00;100436.72;6072886;28;20082;-71
2023/04/12 00:05:26;;;;;;;6.17;2.70;;;;;;;2.68;100.00;100440.00;6072459;28;20487;-70
2023/04/12 00:08:31;;;;;;;6.40;2.55;;;;;;;2.60;100.00;100428.34;6072585;28;20034;-71
2023/04/12 00:11:27;;;;;;;8.23;2.80;;;;;;;2.64;100.00;100438.50;6072023;28;20037;-71
2023/04/12 00:14:23;;;;;;;5.82;2.88;;;;;;;2.56;100.00;100408.56;6072290;28;20398;-71
2023/04/12 00:17:19;;;;;;;9.45;2.90;;;;;;;2.59;100.00;100405.72;6072972;28;20101;-71
2023/04/12 00:20:15;;;;;;;7.70;2.60;;;;;;;2.65;100.00;100414.03;6072815;28;20034;-71
2023/04/12 00:23:11;;;;;;;7.35;2.70;;;;;;;2.54;100.00;100390.34;6073369;28;20309;-71
2023/04/12 00:26:07;;;;;;;6.57;2.60;;;;;;;2.52;100.00;100373.09;6099120;28;20045;-70
2023/04/12 00:29:02;;;;;;;6.33;2.33;;;;;;;2.55;100.00;100359.78;6106701;28;20043;-71
2023/04/12 00:32:00;;;;;;;11.63;3.03;;;;;;;2.55;100.00;100362.41;6085788;28;20688;-70
2023/04/12 00:34:55;;;;;;;7.13;2.80;;;;;;;2.65;100.00;100368.69;6076604;28;20080;-70
2023/04/12 00:37:50;;;;;;;9.80;3.40;;;;;;;2.54;100.00;100340.63;6077332;28;20045;-72
2023/04/12 00:40:46;;;;;;;8.63;2.57;;;;;;;2.58;100.00;100346.50;6076997;28;20376;-70
2023/04/12 00:43:41;;;;;;;6.97;2.60;;;;;;;2.62;100.00;100347.94;6076900;28;20044;-71
2023/04/12 00:46:37;;;;;;;5.93;2.40;;;;;;;2.54;100.00;100343.25;6075992;28;20044;-70
2023/04/12 00:49:32;;;;;;;9.23;3.17;;;;;;;2.57;100.00;100355.28;6077311;28;20540;-70
2023/04/12 00:52:32;;;;;;;5.72;2.55;;;;;;;2.62;100.00;100345.34;6077054;28;20116;-71
2023/04/12 00:55:28;;;;;;;8.85;2.60;;;;;;;2.47;100.00;100315.84;6076707;28;20095;-70
2023/04/12 00:58:23;;;;;;;5.47;2.33;;;;;;;2.71;100.00;100339.47;6076799;28;20067;-70
2023/04/12 01:01:20;;;;;;;4.30;2.10;;;;;;;2.64;100.00;100319.88;6076257;28;20095;-70
2023/04/12 01:04:15;;;;;;;5.68;2.80;;;;;;;2.71;100.00;100329.84;6076268;28;20130;-70
2023/04/12 01:07:20;;;;;;;5.43;2.13;;;;;;;2.79;100.00;100335.41;6076625;28;20037;-71
2023/04/12 01:10:31;;;;;;;8.05;2.80;;;;;;;2.75;100.00;100328.69;6062636;28;20470;-71
2023/04/12 01:13:33;;;;;;;8.85;2.53;;;;;;;2.73;100.00;100319.25;6085138;28;20188;-71
2023/04/12 01:16:44;;;;;;;9.90;2.30;;;;;;;2.71;100.00;100322.00;6091612;28;20546;-71
2023/04/12 01:19:56;;;;;;;8.25;2.78;;;;;;;2.77;100.00;100310.28;6076460;28;20049;-70
2023/04/12 01:23:04;;;;;;;6.90;2.53;;;;;;;2.78;100.00;100311.94;6092007;28;20040;-71
2023/04/12 01:26:14;;;;;;;6.28;2.20;;;;;;;2.72;100.00;100318.41;6074928;28;20033;-71
2023/04/12 01:29:15;;;;;;;5.25;2.40;;;;;;;2.64;100.00;100298.94;6058443;28;20030;-71
2023/04/12 01:32:11;;;;;;;7.28;2.42;;;;;;;2.72;100.00;100302.72;6091595;28;20037;-71
2023/04/12 01:35:07;;;;;;;6.97;2.80;;;;;;;2.81;100.00;100311.72;6075644;28;20518;-70
2023/04/12 01:38:03;;;;;;;8.10;2.55;;;;;;;2.86;99.84;100296.53;6091498;28;20030;-72
2023/04/12 01:40:59;;;;;;;8.15;2.42;;;;;;;2.93;98.51;100282.91;6075079;28;20044;-71
2023/04/12 01:43:54;;;;;;;5.32;1.83;;;;;;;2.98;97.83;100277.34;6075317;28;20040;-71
2023/04/12 01:46:50;;;;;;;7.38;2.05;;;;;;;2.92;97.74;100256.81;6075856;28;20037;-71
2023/04/12 01:49:58;;;;;;;9.00;2.28;;;;;;;2.92;97.47;100248.97;6090831;28;20033;-71
2023/04/12 01:53:02;;;;;;;5.43;2.25;;;;;;;2.92;97.83;100251.59;6075050;28;20470;-70
2023/04/12 01:55:58;;;;;;;5.78;1.88;;;;;;;2.75;97.57;100215.28;6056885;28;20043;-71
2023/04/12 01:58:54;;;;;;;5.40;2.08;;;;;;;2.83;96.82;100229.50;6057313;28;20029;-70
2023/04/12 02:01:50;;;;;;;7.25;2.20;;;;;;;2.90;97.50;100237.78;6089885;28;20044;-71
2023/04/12 02:04:45;;;;;;;4.40;1.80;;;;;;;2.88;97.91;100235.25;6057113;28;20029;-71
2023/04/12 02:07:41;;;;;;;6.45;1.98;;;;;;;2.84;97.29;100223.34;6089338;28;20033;-71
2023/04/12 02:10:39;;;;;;;4.43;1.98;;;;;;;2.84;96.84;100219.88;6063033;28;20118;-71
2023/04/12 02:13:34;;;;;;;6.43;2.55;;;;;;;2.82;96.68;100211.31;6074463;28;20582;-71
2023/04/12 02:16:31;;;;;;;5.90;2.07;;;;;;;2.80;96.91;100211.41;6074645;28;20040;-71
2023/04/12 02:19:26;;;;;;;4.90;2.25;;;;;;;2.76;97.17;100209.97;6075197;28;20360;-71
2023/04/12 02:22:21;;;;;;;6.75;2.30;;;;;;;2.87;97.04;100225.75;6074543;28;20041;-71
2023/04/12 02:25:17;;;;;;;3.87;1.73;;;;;;;2.80;96.64;100198.31;6073765;28;20041;-71
2023/04/12 02:28:12;;;;;;;5.10;1.90;;;;;;;2.79;97.26;100198.44;6074614;28;20102;-72
2023/04/12 02:31:08;;;;;;;3.85;1.70;;;;;;;2.83;96.86;100189.41;6074607;28;20029;-72
2023/04/12 02:34:04;;;;;;;5.85;1.80;;;;;;;2.99;95.64;100197.81;6073573;28;20040;-71
2023/04/12 02:36:59;;;;;;;3.72;1.77;;;;;;;3.01;95.14;100190.72;6057039;28;20112;-71
2023/04/12 02:39:55;;;;;;;7.83;2.30;;;;;;;3.02;94.91;100187.13;6082323;28;20029;-71
2023/04/12 02:42:51;;;;;;;6.20;1.92;;;;;;;3.04;94.80;100180.00;6080884;28;20073;-70
2023/04/12 02:45:46;;;;;;;6.35;1.85;;;;;;;2.94;94.24;100153.66;6080310;28;20026;-72
2023/04/12 02:48:41;;;;;;;6.15;1.98;;;;;;;2.98;93.76;100146.41;6100083;28;20029;-70
2023/04/12 02:51:37;;;;;;;4.00;1.77;;;;;;;3.03;94.19;100152.16;6085082;28;20049;-70
2023/04/12 02:54:32;;;;;;;8.30;2.40;;;;;;;2.94;93.88;100135.31;6072905;28;20401;-72
2023/04/12 02:57:28;;;;;;;10.98;2.30;;;;;;;2.93;94.47;100127.59;6074247;28;20260;-71
2023/04/12 03:00:23;;;;;;;4.17;1.70;;;;;;;3.00;94.09;100134.88;6074275;28;20149;-70
2023/04/12 03:03:20;;;;;;;6.15;1.73;;;;;;;2.98;93.94;100130.69;6073934;28;20329;-71
2023/04/12 03:06:15;;;;;;;4.95;2.15;;;;;;;2.98;94.18;100136.78;6073686;28;20037;-71
2023/04/12 03:09:11;;;;;;;4.60;1.77;;;;;;;2.93;93.83;100122.34;6074246;28;20033;-71
2023/04/12 03:12:06;;;;;;;7.10;1.77;;;;;;;3.04;94.08;100134.66;6073963;28;20046;-70
2023/04/12 03:15:01;;;;;;;4.87;1.90;;;;;;;3.07;94.37;100127.41;6073495;28;20277;-71
2023/04/12 03:17:57;;;;;;;8.73;2.88;;;;;;;3.11;94.08;100123.59;6073807;28;20109;-70
2023/04/12 03:20:52;;;;;;;5.20;1.80;;;;;;;3.14;93.84;100110.28;6073742;28;20087;-70
2023/04/12 03:23:47;;;;;;;4.65;1.83;;;;;;;3.10;93.06;100082.63;6073118;28;20026;-71
2023/04/12 03:26:43;;;;;;;6.07;2.20;;;;;;;3.18;93.08;100085.53;6073456;28;20132;-71
2023/04/12 03:29:38;;;;;;;5.13;2.03;;;;;;;3.26;93.03;100090.22;6073578;28;20029;-71
2023/04/12 03:32:33;;;;;;;5.67;2.20;;;;;;;3.24;92.10;100079.81;6073389;28;20038;-72
2023/04/12 03:35:29;;;;;;;4.30;2.20;;;;;;;3.26;91.78;100085.78;6072041;28;20445;-71
2023/04/12 03:38:24;;;;;;;6.68;2.13;;;;;;;3.18;93.00;100069.00;6073524;28;20037;-70
2023/04/12 03:41:22;;;;;;;5.15;2.03;;;;;;;3.17;92.55;100060.28;6073446;28;20367;-71
2023/04/12 03:44:18;;;;;;;4.15;1.95;;;;;;;3.24;92.46;100063.28;6072264;28;20655;-71
2023/04/12 03:47:13;;;;;;;5.88;2.08;;;;;;;3.27;93.06;100053.41;6073360;28;20037;-71
2023/04/12 03:50:09;;;;;;;6.30;2.30;;;;;;;3.21;92.37;100022.44;6073358;28;20049;-70
2023/04/12 03:53:04;;;;;;;6.07;2.20;;;;;;;3.33;92.77;100031.97;6072462;28;20040;-72
2023/04/12 03:55:59;;;;;;;4.50;2.40;;;;;;;3.36;91.71;100021.28;6071739;28;20383;-72
2023/04/12 03:58:55;;;;;;;7.80;2.30;;;;;;;3.48;91.71;100032.56;6073019;28;20026;-71
2023/04/12 04:01:51;;;;;;;4.25;1.83;;;;;;;3.56;90.58;100017.94;6072455;28;20044;-72
2023/04/12 04:04:46;;;;;;;4.78;1.73;;;;;;;3.60;90.35;100014.13;6076047;28;20041;-71
2023/04/12 04:07:41;;;;;;;11.83;1.80;;;;;;;3.60;89.69;100015.91;6077822;28;20025;-71
2023/04/12 04:10:36;;;;;;;6.57;2.60;;;;;;;3.60;89.63;99995.78;6077777;28;20052;-72
2023/04/12 04:13:32;;;;;;;4.07;1.73;;;;;;;3.72;88.74;99990.53;6059909;28;20076;-71
2023/04/12 04:16:28;;;;;;;3.73;1.67;;;;;;;3.68;88.87;99978.63;6077751;28;20500;-70
2023/04/12 04:19:24;;;;;;;2.95;1.35;;;;;;;3.79;87.73;99981.22;6077119;28;20033;-71
2023/04/12 04:22:20;;;;;;;5.07;1.90;;;;;;;3.82;88.10;99986.22;6076854;28;20034;-72
2023/04/12 04:25:15;;;;;;;4.40;2.10;;;;;;;3.71;88.18;99950.38;6076670;28;20548;-72
2023/04/12 04:28:10;;;;;;;7.60;1.97;;;;;;;3.71;88.19;99952.16;6077701;28;20041;-70
2023/04/12 04:31:06;;;;;;;8.93;2.23;;;;;;;3.70;88.72;99950.47;6083377;28;20031;-71
2023/04/12 04:34:04;;;;;;;6.65;2.20;;;;;;;3.81;87.77;99968.81;6076138;28;20379;-72
2023/04/12 04:36:59;;;;;;;6.50;1.90;;;;;;;3.70;88.45;99947.88;6077042;28;20045;-70
2023/04/12 04:39:55;;;;;;;6.55;1.75;;;;;;;3.76;89.70;99950.00;6076946;28;20057;-72
2023/04/12 04:42:53;;;;;;;9.10;2.00;;;;;;;3.65;89.22;99943.00;6077372;28;20088;-71
2023/04/12 04:45:53;;;;;;;5.28;2.03;;;;;;;3.69;90.61;99946.22;6075965;28;20045;-72
2023/04/12 04:48:50;;;;;;;4.70;2.25;;;;;;;3.66;90.31;99935.97;6077258;28;20033;-71
2023/04/12 04:51:45;;;;;;;9.73;1.98;;;;;;;3.69;90.49;99944.44;6092550;28;20475;-72
2023/04/12 04:54:41;;;;;;;6.67;1.93;;;;;;;3.64;90.50;99924.78;6076150;28;20060;-71
2023/04/12 04:57:36;;;;;;;4.60;1.80;;;;;;;3.74;90.96;99936.19;6076803;28;20040;-72
2023/04/12 05:00:34;;;;;;;3.80;1.80;;;;;;;3.73;89.75;99931.91;6094808;28;20279;-72
2023/04/12 05:03:32;;;;;;;10.07;2.28;;;;;;;3.86;89.39;99928.16;6078487;28;20486;-71
2023/04/12 05:06:28;;;;;;;4.60;2.03;;;;;;;3.96;88.42;99907.31;6092207;28;20033;-71
2023/04/12 05:09:23;;;;;;;3.53;1.70;;;;;;;4.04;87.51;99912.75;6117417;28;20432;-70
2023/04/12 05:12:18;;;;;;;6.67;1.60;;;;;;;4.08;87.25;99903.66;6085909;28;20037;-71
2023/04/12 05:15:13;;;;;;;4.83;1.90;;;;;;;4.11;87.56;99906.03;6075007;28;20039;-71
2023/04/12 05:18:09;;;;;;;4.20;2.00;;;;;;;4.21;86.19;99904.34;6076167;28;20486;-71
2023/04/12 05:21:05;;;;;;;4.10;1.77;;;;;;;4.28;86.57;99917.78;6076275;28;20029;-71
2023/04/12 05:24:00;;;;;;;4.80;2.05;;;;;;;4.30;85.49;99897.50;6076099;28;20038;-72
2023/04/12 05:26:55;;;;;;;6.53;1.93;;;;;;;4.46;84.38;99885.59;6085257;28;20029;-72
2023/04/12 05:29:51;;;;;;;5.23;2.00;;;;;;;4.70;82.81;99886.16;6097846;28;20035;-71
2023/04/12 05:32:46;;;;;;;4.50;1.88;;;;;;;4.98;81.59;99894.34;6076147;28;20040;-72
2023/04/12 05:35:42;;;;;;;4.50;2.00;;;;;;;5.19;81.67;99906.47;6073455;28;20049;-70
2023/04/12 05:38:37;;;;;;;7.90;1.90;;;;;;;5.35;80.87;99882.34;6058287;28;20057;-71
2023/04/12 05:41:32;;;;;;;7.27;2.50;;;;;;;5.51;79.09;99876.56;6078998;28;20768;-72
2023/04/12 05:44:27;;;;;;;8.93;2.07;;;;;;;5.92;77.71;99886.94;6073072;28;20037;-72
2023/04/12 05:47:23;;;;;;;5.67;1.83;;;;;;;5.91;77.31;99870.31;6076453;28;20119;-72
2023/04/12 05:50:19;;;;;;;6.37;2.03;;;;;;;5.86;77.52;99867.28;6069573;28;20029;-72
2023/04/12 05:53:14;;;;;;;3.53;1.50;;;;;;;6.13;76.58;99873.66;6082639;28;20043;-73
2023/04/12 05:56:10;;;;;;;4.80;1.70;;;;;;;5.95;76.82;99866.44;6074167;28;20029;-71
2023/04/12 05:59:06;;;;;;;5.40;2.10;;;;;;;5.81;78.13;99853.66;6078910;28;20381;-72
2023/04/12 06:02:01;;;;;;;5.22;1.88;;;;;;;5.68;77.90;99857.53;6080868;28;20048;-72
2023/04/12 06:04:57;;;;;;;3.57;1.80;;;;;;;5.62;79.52;99863.31;6074920;28;20509;-72
2023/04/12 06:07:52;;;;;;;5.03;1.75;;;;;;;5.51;79.64;99863.44;6059171;28;20032;-72
2023/04/12 06:10:47;;;;;;;7.97;3.30;;;;;;;5.37;81.01;99854.97;6074814;28;20690;-72
2023/04/12 06:13:42;;;;;;;7.63;1.57;;;;;;;5.41;80.88;99852.88;6071587;28;20291;-72
2023/04/12 06:16:38;;;;;;;5.60;2.07;;;;;;;5.34;81.00;99841.25;6080449;28;20045;-71
2023/04/12 06:19:33;;;;;;;4.33;1.93;;;;;;;5.42;81.79;99854.56;6072835;28;20045;-71
2023/04/12 06:22:28;;;;;;;2.70;1.53;;;;;;;5.34;81.82;99836.00;6073507;28;20036;-72
2023/04/12 06:25:24;;;;;;;11.87;2.37;;;;;;;5.39;81.98;99832.00;6073209;28;20506;-72
2023/04/12 06:28:20;;;;;;;6.90;2.60;;;;;;;5.48;81.93;99845.28;6074131;28;20025;-72
2023/04/12 06:31:15;;;;;;;6.70;1.87;;;;;;;5.54;82.38;99840.34;6074987;28;20039;-71
2023/04/12 06:34:11;;;;;;;7.00;2.35;;;;;;;5.50;81.69;99812.63;6073664;28;20051;-70
2023/04/12 06:37:06;;;;;;;18.03;6.47;;;;;;;5.63;81.56;99813.22;6073765;28;20037;-71
2023/04/12 06:40:01;;;;;;;10.00;3.08;;;;;;;5.71;81.23;99810.72;6074036;28;20078;-71
2023/04/12 06:42:57;;;;;;;5.90;2.20;;;;;;;5.77;81.44;99799.66;6073574;28;20040;-71
2023/04/12 06:45:52;;;;;;;11.13;2.40;;;;;;;5.99;81.67;99812.56;6072698;28;20080;-71
2023/04/12 06:48:47;;;;;;;4.87;1.70;;;;;;;6.16;81.79;99797.88;6074698;28;20501;-71
2023/04/12 06:51:43;;;;;;;7.03;2.20;;;;;;;6.25;80.91;99799.66;6077485;28;20493;-71
2023/04/12 06:54:38;;;;;;;5.82;2.47;;;;;;;6.31;80.43;99796.47;6072126;28;20033;-71
2023/04/12 06:57:33;;;;;;;6.15;2.30;;;;;;;6.38;81.03;99792.31;6073207;28;20034;-72
2023/04/12 07:00:29;;;;;;;5.13;2.13;;;;;;;6.44;80.36;99780.38;6074215;28;20044;-71
2023/04/12 07:03:27;;;;;;;7.07;2.22;;;;;;;6.52;80.27;99777.84;6072003;28;20509;-72
2023/04/12 07:06:22;;;;;;;5.13;1.83;;;;;;;6.62;79.48;99762.00;6073167;28;20037;-72
2023/04/12 07:09:18;;;;;;;10.23;2.93;;;;;;;6.86;79.29;99752.63;6072280;28;20536;-71
2023/04/12 07:12:13;;;;;;;7.40;2.10;;;;;;;7.10;78.09;99737.09;6072949;28;20093;-71
2023/04/12 07:15:09;;;;;;;6.80;2.07;;;;;;;7.25;77.07;99737.41;6071874;28;20029;-71
2023/04/12 07:18:04;;;;;;;6.88;1.90;;;;;;;7.57;76.94;99728.97;6074783;28;20044;-71
2023/04/12 07:21:00;;;;;;;5.38;2.28;;;;;;;7.82;74.68;99733.50;6072893;28;20029;-71
2023/04/12 07:23:55;;;;;;;3.53;1.70;;;;;;;7.70;75.90;99721.50;6070954;28;20037;-71
2023/04/12 07:26:53;;;;;;;3.93;2.00;;;;;;;8.08;75.13;99717.69;6074700;28;20029;-72
2023/04/12 07:29:51;;;;;;;7.38;1.88;;;;;;;8.05;74.49;99721.47;6098260;28;20025;-72
2023/04/12 07:32:47;;;;;;;5.35;1.92;;;;;;;7.93;74.15;99713.94;6078961;28;20040;-71
2023/04/12 07:35:42;;;;;;;6.47;2.00;;;;;;;8.06;74.45;99702.00;6074894;28;20632;-71
2023/04/12 07:38:38;;;;;;;5.70;1.87;;;;;;;8.34;74.02;99708.00;6071623;28;20037;-72
2023/04/12 07:41:33;;;;;;;7.03;1.93;;;;;;;8.32;73.69;99713.41;6071896;28;20387;-71
2023/04/12 07:44:28;;;;;;;5.50;1.67;;;;;;;8.51;74.50;99696.50;6070968;28;20106;-71
2023/04/12 07:47:24;;;;;;;8.52;2.15;;;;;;;8.70;71.98;99679.56;6071785;28;20038;-71
2023/04/12 07:50:20;;;;;;;8.02;2.30;;;;;;;8.98;72.33;99679.19;6071247;28;20091;-70
2023/04/12 07:53:27;;;;;;;6.07;2.05;;;;;;;9.31;71.35;99655.44;6073473;28;20483;-71
2023/04/12 07:56:23;;;;;;;12.57;2.90;;;;;;;9.50;70.20;99655.97;6070357;28;20057;-71
2023/04/12 07:59:18;;;;;;;5.07;1.53;;;;;;;9.66;69.31;99655.13;6072116;28;20489;-72
2023/04/12 08:02:13;;;;;;;4.27;1.50;;;;;;;9.56;68.26;99657.13;6070951;28;20029;-72
2023/04/12 08:05:08;;;;;;;7.37;1.60;;;;;;;9.13;68.90;99634.41;6076082;28;20082;-73
2023/04/12 08:08:05;;;;;;;7.77;1.47;;;;;;;9.32;69.50;99649.97;6070402;28;20453;-70
2023/04/12 08:11:01;;;;;;;6.13;1.35;;;;;;;9.76;67.88;99633.75;6063817;28;20536;-72
2023/04/12 08:13:57;;;;;;;3.17;1.63;;;;;;;9.81;67.66;99640.19;6070923;28;20124;-71
2023/04/12 08:16:52;;;;;;;5.78;1.83;;;;;;;9.84;67.47;99639.03;6071859;28;20376;-72
2023/04/12 08:19:47;;;;;;;9.93;2.20;;;;;;;9.66;67.81;99625.16;6074168;28;20025;-71
2023/04/12 08:22:44;;;;;;;9.03;2.33;;;;;;;10.10;67.45;99621.13;6074828;28;20122;-72
2023/04/12 08:25:40;;;;;;;5.75;1.65;;;;;;;10.26;66.91;99607.03;6071628;28;20045;-72
2023/04/12 08:28:35;;;;;;;4.50;1.43;;;;;;;10.30;66.28;99609.16;6069589;28;20115;-71
2023/04/12 08:31:30;;;;;;;7.67;1.60;;;;;;;10.20;67.12;99599.75;6073203;28;20405;-72
2023/04/12 08:34:25;;;;;;;5.90;1.60;;;;;;;10.24;67.63;99601.91;6070319;28;20045;-73
2023/04/12 08:37:21;;;;;;;8.37;2.23;;;;;;;10.30;66.76;99598.56;6071390;28;20026;-72
2023/04/12 08:40:16;;;;;;;7.13;1.97;;;;;;;10.22;67.61;99585.34;6071091;28;20044;-72
2023/04/12 08:43:12;;;;;;;6.03;1.75;;;;;;;10.24;67.16;99567.47;6082263;28;20037;-73
2023/04/12 08:46:08;;;;;;;5.50;1.65;;;;;;;10.20;66.69;99566.16;6070607;28;20038;-71
2023/04/12 08:49:03;;;;;;;5.97;1.58;;;;;;;10.29;67.01;99559.84;6071035;28;20410;-71
2023/04/12 08:52:07;;;;;;;5.70;1.70;;;;;;;10.46;65.90;99571.19;6074941;28;20128;-73
2023/04/12 08:55:06;;;;;;;4.97;1.35;;;;;;;10.73;65.41;99554.78;6080210;28;20029;-72
2023/04/12 08:58:06;;;;;;;4.78;1.50;;;;;;;10.96;65.18;99552.13;6072783;28;20045;-72
2023/04/12 09:01:01;;;;;;;4.43;1.30;;;;;;;10.83;66.01;99551.91;6082603;28;20037;-71
2023/04/12 09:03:57;;;;;;;3.13;1.40;;;;;;;10.73;67.47;99554.78;6074746;28;20040;-73
2023/04/12 09:06:52;;;;;;;7.07;2.20;;;;;;;10.58;67.63;99537.97;6075526;28;20394;-72
2023/04/12 09:09:48;;;;;;;2.97;1.63;;;;;;;10.63;68.09;99548.88;6078285;28;20291;-72
2023/04/12 09:12:45;;;;;;;5.90;1.58;;;;;;;10.64;67.79;99538.09;6079188;28;20355;-73
2023/04/12 09:15:48;;;;;;;8.23;1.60;;;;;;;10.63;68.30;99536.44;6074945;28;20034;-72
2023/04/12 09:18:48;;;;;;;3.28;1.08;;;;;;;10.56;68.96;99522.25;6074841;28;20037;-72
2023/04/12 09:21:54;;;;;;;4.18;1.15;;;;;;;10.38;70.11;99511.06;6079434;28;20037;-71
2023/04/12 09:24:52;;;;;;;3.75;1.08;;;;;;;10.27;72.74;99535.34;6074142;28;20175;-71
2023/04/12 09:27:51;;;;;;;4.65;1.20;;;;;;;10.03;75.01;99519.50;6074311;28;20099;-72
2023/04/12 09:30:52;;;;;;;4.22;1.13;;;;;;;9.77;76.10;99511.00;6076858;28;20136;-72
2023/04/12 09:33:48;;;;;;;7.50;1.17;;;;;;;9.67;77.32;99511.19;6067866;28;20025;-71
2023/04/12 09:36:43;;;;;;;3.77;1.10;;;;;;;9.46;76.93;99508.25;6075062;28;20367;-71
2023/04/12 09:39:38;;;;;;;1.60;0.80;;;;;;;9.35;80.83;99517.38;6074721;28;20025;-73
2023/04/12 09:42:35;;;;;;;4.10;1.03;;;;;;;9.14;82.94;99508.31;6079003;28;20271;-71
2023/04/12 09:45:34;;;;;;;6.28;1.33;;;;;;;8.92;84.74;99491.28;6091687;28;20033;-70
2023/04/12 09:48:29;;;;;;;4.45;1.55;;;;;;;8.83;86.31;99503.69;6086881;28;20029;-70
2023/04/12 09:51:32;;;;;;;4.32;1.33;;;;;;;8.65;86.87;99488.97;6075199;28;20043;-71
2023/04/12 09:54:28;;;;;;;2.97;1.30;;;;;;;8.60;84.51;99476.25;6073641;28;20065;-72
2023/04/12 09:57:23;;;;;;;5.35;1.33;;;;;;;8.53;89.05;99495.56;6075674;28;20107;-72
2023/04/12 10:00:21;;;;;;;5.10;1.30;;;;;;;8.41;91.15;99483.66;6073646;28;20038;-71
2023/04/12 10:03:17;;;;;;;5.25;1.38;;;;;;;8.41;91.61;99484.47;6073816;28;20045;-72
2023/04/12 10:06:13;;;;;;;3.05;1.60;;;;;;;8.51;92.65;99492.25;6074492;28;20655;-71
2023/04/12 10:09:09;;;;;;;3.38;1.35;;;;;;;8.36;93.31;99471.78;6091434;28;20040;-72
2023/04/12 10:12:04;;;;;;;8.85;2.13;;;;;;;8.32;94.18;99469.59;6077690;28;20113;-72
2023/04/12 10:15:04;;;;;;;4.13;1.50;;;;;;;8.30;95.40;99472.41;6089047;28;20398;-72
2023/04/12 10:18:01;;;;;;;3.75;1.95;;;;;;;8.31;96.28;99487.28;6074707;28;20068;-72
2023/04/12 10:20:57;;;;;;;4.32;1.95;;;;;;;8.19;97.11;99459.47;6077764;28;20060;-72
2023/04/12 10:23:52;;;;;;;3.63;1.35;;;;;;;8.24;97.07;99475.66;6075386;28;20033;-72
2023/04/12 10:26:49;;;;;;;6.73;1.20;;;;;;;8.07;97.62;99455.47;6056639;28;20806;-72
2023/04/12 10:29:44;;;;;;;4.32;1.77;;;;;;;8.08;98.06;99466.88;6073671;28;20033;-73
2023/04/12 10:32:39;;;;;;;3.90;1.90;;;;;;;8.06;99.09;99469.69;6058258;28;20041;-71
2023/04/12 10:35:47;;;;;;;4.40;1.60;;;;;;;8.03;99.66;99462.09;6060152;28;20063;-71
2023/04/12 10:38:45;;;;;;;;;;;;;;;8.05;100.00;99467.19;6072994;28;20055;-73
2023/04/12 10:42:21;;;;;;;4.10;2.08;;;;;;;8.04;100.00;99455.81;6073202;28;19927;-72
2023/04/12 10:45:22;;;;;;;3.75;1.65;;;;;;;8.02;100.00;99452.50;6069646;28;20041;-71
2023/04/12 10:48:37;;;;;;;4.20;1.77;;;;;;;8.10;100.00;99455.16;6072770;28;20132;-72
2023/04/12 10:51:32;;;;;;;4.47;2.20;;;;;;;8.13;100.00;99441.63;6073639;28;20026;-70
2023/04/12 10:54:30;;;;;;;6.07;2.33;;;;;;;8.17;100.00;99442.97;6073175;28;20049;-71
2023/04/12 10:57:45;;;;;;;5.57;2.05;;;;;;;8.23;100.00;99439.69;6073277;28;20068;-70
2023/04/12 11:00:57;;;;;;;9.00;2.58;;;;;;;8.22;100.00;99431.94;6073113;28;20025;-71
2023/04/12 11:04:13;;;;;;;5.40;1.92;;;;;;;8.23;100.00;99429.13;6067917;28;22033;-70
2023/04/12 11:07:10;;;;;;;5.75;2.80;;;;;;;8.17;100.00;99402.53;6073039;28;20071;-70
2023/04/12 11:10:12;;;;;;;7.03;2.53;;;;;;;8.32;100.00;99407.03;6073455;28;20036;-71
2023/04/12 11:13:08;;;;;;;7.35;2.65;;;;;;;8.37;100.00;99404.72;6070810;28;20041;-71
2023/04/12 11:16:05;;;;;;;4.13;1.73;;;;;;;8.48;100.00;99402.78;6072294;28;20095;-70
2023/04/12 11:19:01;;;;;;;10.45;3.03;;;;;;;8.59;100.00;99408.53;6072928;28;20429;-70
2023/04/12 11:21:56;;;;;;;11.05;4.38;;;;;;;8.28;100.00;99384.59;6073571;28;20033;-71
2023/04/12 11:24:59;;;;;;;7.72;3.45;;;;;;;8.32;100.00;99396.47;6070634;28;20079;-72
2023/04/12 11:27:55;;;;;;;9.20;2.25;;;;;;;8.50;100.00;99400.78;6073029;28;20029;-70
2023/04/12 11:30:56;;;;;;;6.53;2.10;;;;;;;8.25;100.00;99395.47;6073019;28;20029;-71
2023/04/12 11:33:52;;;;;;;3.47;1.80;;;;;;;8.12;100.00;99384.56;6071339;28;20160;-72
2023/04/12 11:36:51;;;;;;;10.07;2.07;;;;;;;8.19;100.00;99384.72;6072258;28;20045;-70
2023/04/12 11:39:49;;;;;;;5.22;2.55;;;;;;;8.25;100.00;99379.63;6072458;28;20040;-70
2023/04/12 11:42:45;;;;;;;6.38;2.42;;;;;;;8.29;100.00;99374.84;6071742;28;20116;-70
2023/04/12 11:45:41;;;;;;;4.30;2.00;;;;;;;8.23;100.00;99354.38;6073119;28;20387;-71
2023/04/12 11:48:37;;;;;;;4.87;1.90;;;;;;;8.18;100.00;99351.41;6072725;28;20052;-71
2023/04/12 11:51:34;;;;;;;7.38;2.97;;;;;;;8.26;100.00;99375.97;6072314;28;20033;-72
2023/04/12 11:54:30;;;;;;;4.72;2.10;;;;;;;8.25;100.00;99361.13;6071561;28;20109;-72
2023/04/12 11:57:27;;;;;;;6.00;2.90;;;;;;;8.12;100.00;99352.88;6078445;28;20040;-74
2023/04/12 12:00:24;;;;;;;5.70;1.90;;;;;;;8.13;100.00;99343.94;6082256;28;20036;-71
2023/04/12 12:03:19;;;;;;;6.97;2.00;;;;;;;8.23;100.00;99359.66;6082760;28;20045;-74
2023/04/12 12:06:15;;;;;;;4.97;1.90;;;;;;;8.12;100.00;99325.66;6066247;28;20498;-72
2023/04/12 12:09:10;;;;;;;5.57;1.85;;;;;;;8.23;100.00;99336.72;6097445;28;20040;-75
2023/04/12 12:12:07;;;;;;;6.35;2.50;;;;;;;8.17;100.00;99334.72;6089001;28;20051;-71
2023/04/12 12:15:02;;;;;;;4.80;1.90;;;;;;;8.13;100.00;99341.31;6074630;28;20083;-73
2023/04/12 12:17:57;;;;;;;4.60;1.95;;;;;;;8.18;100.00;99331.06;6071680;28;20033;-74
2023/04/12 12:20:54;;;;;;;3.10;1.70;;;;;;;8.06;100.00;99315.75;6072233;28;20029;-70
2023/04/12 12:23:49;;;;;;;8.05;4.85;;;;;;;8.03;100.00;99322.16;6074521;28;20337;-72
2023/04/12 12:26:48;;;;;;;7.95;3.65;;;;;;;7.96;100.00;99313.28;6082734;28;20033;-71
2023/04/12 12:29:43;;;;;;;9.48;4.30;;;;;;;7.96;100.00;99315.06;6079709;28;20033;-72
2023/04/12 12:32:39;;;;;;;6.20;1.90;;;;;;;7.95;100.00;99308.97;6058989;28;20537;-72
2023/04/12 12:35:35;;;;;;;4.15;2.10;;;;;;;8.06;100.00;99318.38;6075713;28;20029;-73
2023/04/12 12:38:37;;;;;;;4.38;2.83;;;;;;;8.05;100.00;99311.44;6080876;28;20108;-73
2023/04/12 12:41:33;;;;;;;4.43;2.15;;;;;;;8.08;100.00;99305.81;6084875;28;20083;-73
2023/04/12 12:44:28;;;;;;;4.33;1.90;;;;;;;8.09;100.00;99296.94;6069223;28;20036;-71
2023/04/12 12:47:23;;;;;;;5.00;3.00;;;;;;;8.13;100.00;99306.16;6083778;28;20469;-72
2023/04/12 12:50:22;;;;;;;5.87;1.80;;;;;;;7.97;100.00;99299.06;6086444;28;20540;-70
2023/04/12 12:53:17;;;;;;;6.07;3.13;;;;;;;8.01;100.00;99300.41;6084848;28;20083;-71
2023/04/12 12:56:13;;;;;;;4.03;1.90;;;;;;;7.89;100.00;99280.59;6076657;28;20037;-73
2023/04/12 12:59:09;;;;;;;5.47;2.40;;;;;;;7.99;100.00;99262.75;6075790;28;20022;-73
2023/04/12 13:02:06;;;;;;;4.45;1.92;;;;;;;8.12;100.00;99278.94;6075869;28;20056;-73
2023/04/12 13:05:03;;;;;;;5.97;2.00;;;;;;;8.16;100.00;99280.25;6075564;28;20509;-73
2023/04/12 13:07:58;;;;;;;4.05;1.70;;;;;;;8.05;100.00;99266.56;6076251;28;20068;-74
2023/04/12 13:10:54;;;;;;;3.17;1.47;;;;;;;8.09;100.00;99267.88;6081797;28;20025;-71
2023/04/12 13:13:49;;;;;;;5.75;2.55;;;;;;;8.07;100.00;99268.03;6076041;28;20060;-72
2023/04/12 13:16:47;;;;;;;3.70;2.00;;;;;;;8.12;100.00;99271.03;6075347;28;20046;-73
2023/04/12 13:19:45;;;;;;;6.40;2.17;;;;;;;8.11;100.00;99253.53;6075486;28;20037;-73
2023/04/12 13:22:40;;;;;;;3.90;1.63;;;;;;;8.13;100.00;99254.19;6075522;28;20129;-73
2023/04/12 13:25:36;;;;;;;6.20;1.90;;;;;;;8.24;100.00;99266.22;6076038;28;20037;-72
2023/04/12 13:28:31;;;;;;;3.43;1.60;;;;;;;8.21;100.00;99258.63;6075888;28;20033;-72
2023/04/12 13:31:26;;;;;;;5.45;2.15;;;;;;;8.26;100.00;99262.41;6073668;28;20029;-73
2023/04/12 13:34:21;;;;;;;3.13;1.60;;;;;;;8.20;100.00;99252.53;6074490;28;20445;-73
2023/04/12 13:37:17;;;;;;;4.17;2.27;;;;;;;8.17;100.00;99244.97;6074352;28;20033;-72
2023/04/12 13:40:12;;;;;;;4.10;1.90;;;;;;;8.32;100.00;99256.50;6074621;28;20049;-74
2023/04/12 13:43:07;;;;;;;4.17;1.40;;;;;;;8.34;100.00;99253.72;6074030;28;20052;-73
2023/04/12 13:46:03;;;;;;;5.60;1.60;;;;;;;8.29;100.00;99246.28;6073732;28;20398;-71
2023/04/12 13:48:58;;;;;;;3.33;1.57;;;;;;;8.26;100.00;99243.13;6075107;28;20475;-72
2023/04/12 13:51:55;;;;;;;4.83;1.80;;;;;;;8.35;100.00;99248.25;6075260;28;20292;-72
2023/04/12 13:54:50;;;;;;;2.13;1.10;;;;;;;8.29;100.00;99242.81;6074307;28;20038;-73
2023/04/12 13:57:45;;;;;;;4.30;2.07;;;;;;;8.28;100.00;99236.72;6074056;28;20036;-72